Time;durP1;ratioP1;P1;durP2;ratioP2;P2;SDS_P1;SDS_P2;PMS_P1;PMS_P2;Temp;Humidity;BMP_temperature;BMP_pressure;BME280_temperature;BME280_humidity;BME280_pressure;Samples;Min_cycle;Max_cycle;Signal;HPM_P1;HPM_P2
2023/01/29 00:00:47;;;;;;;22.33;11.70;;;;;;;-143.48;74.99;118439.88;5075653;28;20020;-40
2023/01/29 00:03:12;;;;;;;21.58;11.38;;;;;;;-143.48;75.13;118439.88;5094881;28;20020;-40
2023/01/29 00:05:37;;;;;;;19.65;10.68;;;;;;;-143.48;75.01;118439.88;5094526;28;20107;-40
2023/01/29 00:08:02;;;;;;;19.60;11.45;;;;;;;-143.48;75.39;118439.88;5094473;28;20039;-40
2023/01/29 00:10:28;;;;;;;25.40;10.88;;;;;;;-143.48;74.53;118439.88;5094735;28;20020;-40
2023/01/29 00:12:56;;;;;;;21.08;10.63;;;;;;;-143.48;74.80;118439.88;5094385;28;20466;-40
2023/01/29 00:15:22;;;;;;;24.15;10.75;;;;;;;-143.48;74.23;118439.88;5094932;28;20039;-40
2023/01/29 00:17:47;;;;;;;25.13;11.25;;;;;;;-143.48;74.54;118439.88;5094261;28;20473;-40
2023/01/29 00:20:12;;;;;;;20.20;10.65;;;;;;;-143.48;74.67;118439.88;5094620;28;20030;-40
2023/01/29 00:22:38;;;;;;;19.92;11.02;;;;;;;-143.48;74.61;118439.88;5094178;28;20023;-40
2023/01/29 00:25:03;;;;;;;22.02;10.80;;;;;;;-143.48;74.28;118439.88;5094506;28;20024;-40
2023/01/29 00:27:28;;;;;;;20.73;10.82;;;;;;;-143.48;74.89;118439.88;5094394;28;20073;-40
2023/01/29 00:30:11;;;;;;;20.00;11.15;;;;;;;-143.48;74.93;118439.88;5094075;28;20024;-40
2023/01/29 00:32:37;;;;;;;21.15;11.38;;;;;;;-143.48;74.30;118439.88;5094058;28;20024;-40
2023/01/29 00:35:02;;;;;;;18.52;11.07;;;;;;;-143.48;74.29;118439.88;5094012;28;20103;-40
2023/01/29 00:37:28;;;;;;;21.55;11.98;;;;;;;-143.48;73.97;118439.88;5094155;28;20028;-40
2023/01/29 00:39:53;;;;;;;22.15;11.45;;;;;;;-143.48;73.93;118439.88;5093821;28;20024;-40
2023/01/29 00:45:03;;;;;;;23.05;11.73;;;;;;;-143.48;74.43;118439.88;5093783;28;20046;-40
2023/01/29 00:47:34;;;;;;;20.98;11.32;;;;;;;-143.48;74.61;118439.88;5094148;28;20111;-40
2023/01/29 00:50:01;;;;;;;22.00;11.30;;;;;;;-143.48;74.24;118439.88;5093051;28;20024;-40
2023/01/29 00:52:27;;;;;;;21.55;11.70;;;;;;;-143.48;74.58;118439.88;5093421;28;20024;-40
2023/01/29 00:54:57;;;;;;;19.85;11.65;;;;;;;-143.48;74.33;118439.88;5094033;28;20527;-40
2023/01/29 00:57:25;;;;;;;19.95;11.95;;;;;;;-143.48;75.17;118439.88;5094273;28;20022;-40
2023/01/29 00:59:51;;;;;;;21.02;12.00;;;;;;;-143.48;74.50;118439.88;5093560;28;20023;-40
2023/01/29 01:05:02;;;;;;;21.60;11.50;;;;;;;-143.48;73.92;118439.88;5094162;28;20042;-40
2023/01/29 01:07:28;;;;;;;22.98;12.52;;;;;;;-143.48;74.25;118439.88;5093848;28;20024;-40
2023/01/29 01:12:37;;;;;;;25.50;12.27;;;;;;;-143.48;74.48;118439.88;5093561;28;20038;-40
2023/01/29 01:15:03;;;;;;;20.65;12.25;;;;;;;-143.48;75.02;118439.88;5075791;28;20067;-40
2023/01/29 01:17:28;;;;;;;23.15;12.05;;;;;;;-143.48;74.41;118439.88;5093433;28;20028;-40
2023/01/29 01:19:53;;;;;;;22.65;12.35;;;;;;;-143.48;74.95;118439.88;5093793;28;20028;-40
2023/01/29 01:22:19;;;;;;;27.38;13.27;;;;;;;-143.48;74.33;118439.88;5093401;28;20054;-40
2023/01/29 01:24:44;;;;;;;25.70;12.43;;;;;;;-143.48;74.17;118439.88;5093904;28;20035;-40
2023/01/29 01:27:09;;;;;;;21.75;11.90;;;;;;;-143.48;74.39;118439.88;5093343;28;20027;-40
2023/01/29 01:29:35;;;;;;;24.35;13.20;;;;;;;-143.48;74.90;118439.88;5093391;28;20058;-40
2023/01/29 01:32:00;;;;;;;28.55;13.27;;;;;;;-143.48;74.96;118439.88;5093445;28;20024;-40
2023/01/29 01:34:26;;;;;;;25.15;12.93;;;;;;;-143.48;75.27;118439.88;5093547;28;20068;-40
2023/01/29 01:36:52;;;;;;;25.27;13.00;;;;;;;-143.48;74.66;118439.88;5093303;28;20107;-40
2023/01/29 01:39:17;;;;;;;22.80;12.20;;;;;;;-143.48;74.48;118439.88;5093630;28;20557;-40
2023/01/29 01:41:43;;;;;;;21.10;11.35;;;;;;;-143.48;74.93;118439.88;5093520;28;20024;-40
2023/01/29 01:44:46;;;;;;;23.92;12.55;;;;;;;-143.48;74.21;118439.88;5093530;28;20390;-40
2023/01/29 01:47:11;;;;;;;21.95;12.00;;;;;;;-143.48;74.76;118439.88;5093221;28;20032;-40
2023/01/29 01:49:37;;;;;;;20.58;12.05;;;;;;;-143.48;74.56;118439.88;5093496;28;20024;-40
2023/01/29 01:52:03;;;;;;;26.00;13.07;;;;;;;-143.48;74.50;118439.88;5093661;28;20077;-40
2023/01/29 01:54:31;;;;;;;23.25;12.13;;;;;;;-143.48;74.31;118439.88;5093205;28;20489;-40
2023/01/29 01:57:08;;;;;;;21.73;11.63;;;;;;;-143.48;73.91;118439.88;5074783;28;20024;-40
2023/01/29 01:59:37;;;;;;;23.50;12.25;;;;;;;-143.48;74.44;118439.88;5093377;28;20084;-40
2023/01/29 02:10:17;;;;;;;20.48;10.85;;;;;;;-143.48;73.30;118439.88;5093862;28;20043;-40
2023/01/29 02:12:43;;;;;;;19.25;11.05;;;;;;;-143.48;73.63;118439.88;5092972;28;20032;-40
2023/01/29 02:15:09;;;;;;;19.33;11.45;;;;;;;-143.48;73.51;118439.88;5093247;28;20461;-40
2023/01/29 02:17:35;;;;;;;20.15;10.88;;;;;;;-143.48;73.06;118439.88;5092971;28;20059;-40
2023/01/29 02:20:23;;;;;;;24.08;11.15;;;;;;;-143.48;73.25;118439.88;5093433;28;20020;-40
2023/01/29 02:23:10;;;;;;;20.88;11.20;;;;;;;-143.48;73.29;118439.88;5093879;28;20102;-40
2023/01/29 02:25:57;;;;;;;20.35;11.13;;;;;;;-143.48;73.69;118439.88;5096840;28;20028;-40
2023/01/29 02:28:28;;;;;;;18.10;10.95;;;;;;;-143.48;73.64;118439.88;5096931;28;20028;-40
2023/01/29 02:31:15;;;;;;;20.48;12.10;;;;;;;-143.48;73.17;118439.88;5096538;28;20542;-40
2023/01/29 02:33:53;;;;;;;21.38;12.10;;;;;;;-143.48;73.56;118439.88;5096819;28;20032;-40
2023/01/29 02:36:31;;;;;;;21.48;12.80;;;;;;;-143.48;73.61;118439.88;5096623;28;20485;-40
2023/01/29 02:39:05;;;;;;;20.83;11.73;;;;;;;-143.48;72.82;118439.88;5096293;28;20515;-40
2023/01/29 02:41:41;;;;;;;22.40;12.32;;;;;;;-143.48;73.30;118439.88;5096970;28;20059;-40
2023/01/29 02:44:22;;;;;;;23.48;12.60;;;;;;;-143.48;73.83;118439.88;5096214;28;20024;-40
2023/01/29 02:47:00;;;;;;;21.90;12.60;;;;;;;-143.48;73.53;118439.88;5095953;28;20048;-40
2023/01/29 02:49:55;;;;;;;22.88;12.82;;;;;;;-143.48;73.40;118439.88;5096104;28;20111;-40
2023/01/29 02:52:25;;;;;;;20.42;12.13;;;;;;;-143.48;73.47;118439.88;5095271;28;20526;-40
2023/01/29 02:55:01;;;;;;;28.48;13.45;;;;;;;-143.48;73.14;118439.88;5096201;28;20030;-40
2023/01/29 02:57:31;;;;;;;22.38;12.70;;;;;;;-143.48;73.09;118439.88;5095929;28;20028;-40
2023/01/29 03:00:01;;;;;;;24.45;13.93;;;;;;;-143.48;72.54;118439.88;5095925;28;20055;-40
2023/01/29 03:02:55;;;;;;;24.70;13.30;;;;;;;-143.48;72.95;118439.88;5096215;28;20031;-40
2023/01/29 03:05:42;;;;;;;23.08;13.02;;;;;;;-143.48;73.35;118439.88;5081654;28;20036;-40
2023/01/29 03:08:11;;;;;;;24.00;13.32;;;;;;;-143.48;73.02;118439.88;5063247;28;20032;-40
2023/01/29 03:10:44;;;;;;;22.52;12.93;;;;;;;-143.48;73.56;118439.88;5095616;28;20016;-40
2023/01/29 03:13:46;;;;;;;23.85;14.05;;;;;;;-143.48;73.78;118439.88;5095442;28;20474;-40
2023/01/29 03:16:28;;;;;;;28.40;13.25;;;;;;;-143.48;74.44;118439.88;5095531;28;20071;-40
2023/01/29 03:19:00;;;;;;;23.13;12.80;;;;;;;-143.48;74.62;118439.88;5095785;28;20028;-40
2023/01/29 03:21:50;;;;;;;25.13;14.10;;;;;;;-143.48;75.17;118439.88;5095730;28;20047;-40
2023/01/29 03:32:38;;;;;;;27.55;15.18;;;;;;;-143.48;76.09;118439.88;5095931;28;20059;-40
2023/01/29 03:35:07;;;;;;;29.55;15.15;;;;;;;-143.48;75.51;118439.88;5094474;28;20020;-40
2023/01/29 03:37:40;;;;;;;29.08;15.63;;;;;;;-143.48;76.29;118439.88;5095137;28;20020;-40
2023/01/29 03:40:07;;;;;;;28.48;15.90;;;;;;;-143.48;75.90;118439.88;5095092;28;20020;-40
2023/01/29 03:43:00;;;;;;;29.17;16.23;;;;;;;-143.48;75.42;118439.88;5094979;28;20035;-40
2023/01/29 03:45:50;;;;;;;26.67;15.40;;;;;;;-143.48;75.67;118439.88;5094759;28;20044;-40
2023/01/29 03:48:23;;;;;;;30.85;15.43;;;;;;;-143.48;75.72;118439.88;5095167;28;20043;-40
2023/01/29 03:51:30;;;;;;;30.65;16.40;;;;;;;-143.48;75.95;118439.88;5094918;28;20596;-40
2023/01/29 03:54:14;;;;;;;30.73;16.27;;;;;;;-143.48;76.79;118439.88;5063615;28;20122;-40
2023/01/29 03:56:56;;;;;;;30.90;16.00;;;;;;;-143.48;76.49;118439.88;5094984;28;20420;-40
2023/01/29 03:59:35;;;;;;;34.00;17.10;;;;;;;-143.48;76.38;118439.88;5094856;28;20056;-40
2023/01/29 04:02:05;;;;;;;30.80;15.98;;;;;;;-143.48;76.25;118439.88;5094656;28;20020;-40
2023/01/29 04:04:36;;;;;;;31.75;17.05;;;;;;;-143.48;75.70;118439.88;5094576;28;20069;-40
2023/01/29 04:07:12;;;;;;;31.85;17.00;;;;;;;-143.48;75.84;118439.88;5094564;28;20031;-41
2023/01/29 04:10:06;;;;;;;31.65;16.58;;;;;;;-143.48;75.91;118439.88;5094466;28;20024;-40
2023/01/29 04:12:41;;;;;;;28.85;16.02;;;;;;;-143.48;76.39;118439.88;5092768;28;20036;-40
2023/01/29 04:15:10;;;;;;;35.88;17.38;;;;;;;-143.48;76.76;118439.88;5094657;28;20024;-40
2023/01/29 04:17:41;;;;;;;29.25;16.70;;;;;;;-143.48;76.03;118439.88;5094377;28;20363;-39
2023/01/29 04:20:09;;;;;;;28.90;16.45;;;;;;;-143.48;76.42;118439.88;5094186;28;20030;-40
2023/01/29 04:22:37;;;;;;;31.52;17.55;;;;;;;-143.48;75.72;118439.88;5059655;28;20040;-40
2023/01/29 04:25:07;;;;;;;33.60;18.30;;;;;;;-143.48;76.34;118439.88;5094521;28;20046;-40
2023/01/29 04:27:56;;;;;;;33.85;18.17;;;;;;;-143.48;76.09;118439.88;5094376;28;20019;-40
2023/01/29 04:30:46;;;;;;;35.60;17.17;;;;;;;-143.48;75.80;118439.88;5094857;28;20099;-40
2023/01/29 04:33:34;;;;;;;33.00;17.40;;;;;;;-143.48;75.78;118439.88;5094265;28;20112;-40
2023/01/29 04:36:16;;;;;;;31.50;17.58;;;;;;;-143.48;75.83;118439.88;5094578;28;20450;-40
2023/01/29 04:38:53;;;;;;;36.08;18.45;;;;;;;-143.48;76.14;118439.88;5094307;28;20020;-40
2023/01/29 04:41:21;;;;;;;29.23;17.08;;;;;;;-143.48;75.86;118439.88;5093659;28;20032;-40
2023/01/29 04:44:00;;;;;;;31.88;17.70;;;;;;;-143.48;75.64;118439.88;5093932;28;20038;-40
2023/01/29 04:46:34;;;;;;;31.95;17.80;;;;;;;-143.48;75.15;118439.88;5075250;28;20052;-40
2023/01/29 04:49:13;;;;;;;33.45;17.50;;;;;;;-143.48;75.32;118439.88;5093874;28;20024;-40
2023/01/29 04:52:04;;;;;;;32.45;18.17;;;;;;;-143.48;75.68;118439.88;5094016;28;20027;-40
2023/01/29 04:54:51;;;;;;;31.38;17.15;;;;;;;-143.48;75.51;118439.88;5094017;28;20016;-40
2023/01/29 04:57:24;;;;;;;33.00;17.55;;;;;;;-143.48;75.34;118439.88;5094032;28;20480;-40
2023/01/29 05:00:02;;;;;;;33.38;17.17;;;;;;;-143.48;75.56;118439.88;5094006;28;20103;-40
2023/01/29 05:02:30;;;;;;;32.67;17.48;;;;;;;-143.48;75.75;118439.88;5093861;28;20470;-40
2023/01/29 05:04:57;;;;;;;35.53;18.17;;;;;;;-143.48;75.56;118439.88;5094180;28;20016;-40
2023/01/29 05:07:24;;;;;;;32.15;17.58;;;;;;;-143.48;75.62;118439.88;5094166;28;20024;-40
2023/01/29 05:09:50;;;;;;;32.83;17.52;;;;;;;-143.48;76.41;118439.88;5094106;28;20020;-40
2023/01/29 05:12:17;;;;;;;32.78;17.92;;;;;;;-143.48;76.09;118439.88;5093985;28;20382;-40
2023/01/29 05:14:45;;;;;;;34.97;17.92;;;;;;;-143.48;75.85;118439.88;5094185;28;20054;-39
2023/01/29 05:17:15;;;;;;;33.63;17.77;;;;;;;-143.48;75.70;118439.88;5093791;28;20032;-40
2023/01/29 05:19:41;;;;;;;34.45;17.67;;;;;;;-143.48;75.59;118439.88;5093461;28;20024;-40
2023/01/29 05:22:11;;;;;;;32.45;16.90;;;;;;;-143.48;75.57;118439.88;5075825;28;20089;-39
2023/01/29 05:24:36;;;;;;;33.67;17.02;;;;;;;-143.48;75.22;118439.88;5093674;28;20028;-40
2023/01/29 05:29:47;;;;;;;32.50;16.63;;;;;;;-143.48;75.21;118439.88;5094232;28;20047;-40
2023/01/29 05:32:13;;;;;;;34.17;17.02;;;;;;;-143.48;74.29;118439.88;5093259;28;20031;-40
2023/01/29 05:34:38;;;;;;;30.25;16.20;;;;;;;-143.48;74.76;118439.88;5093363;28;20473;-40
2023/01/29 05:37:04;;;;;;;29.92;15.82;;;;;;;-143.48;74.78;118439.88;5093570;28;20030;-40
2023/01/29 05:39:29;;;;;;;34.20;16.55;;;;;;;-143.48;74.36;118439.88;5093284;28;20020;-40
2023/01/29 05:41:54;;;;;;;28.73;15.95;;;;;;;-143.48;74.44;118439.88;5093342;28;20493;-40
2023/01/29 05:44:19;;;;;;;30.80;16.75;;;;;;;-143.48;74.25;118439.88;5093269;28;20020;-40
2023/01/29 05:46:45;;;;;;;31.40;15.88;;;;;;;-143.48;73.86;118439.88;5093053;28;20052;-40
2023/01/29 05:49:11;;;;;;;31.63;16.48;;;;;;;-143.48;73.96;118439.88;5093254;28;20510;-40
2023/01/29 05:51:36;;;;;;;31.40;15.95;;;;;;;-143.48;74.48;118439.88;5075067;28;20421;-40
2023/01/29 05:54:02;;;;;;;32.50;16.42;;;;;;;-143.48;74.53;118439.88;5093169;28;20042;-40
2023/01/29 05:56:27;;;;;;;28.88;15.82;;;;;;;-143.48;74.25;118439.88;5093116;28;20098;-40
2023/01/29 05:58:52;;;;;;;34.15;16.38;;;;;;;-143.48;74.49;118439.88;5096275;28;20028;-40
2023/01/29 06:01:21;;;;;;;33.33;17.08;;;;;;;-143.48;74.05;118439.88;5097108;28;20430;-40
2023/01/29 06:03:47;;;;;;;35.33;17.58;;;;;;;-143.48;74.97;118439.88;5097194;28;20102;-40
2023/01/29 06:06:12;;;;;;;32.13;17.17;;;;;;;-143.48;75.25;118439.88;5096849;28;20063;-40
2023/01/29 06:08:38;;;;;;;30.38;17.08;;;;;;;-143.48;75.50;118439.88;5096815;28;20462;-40
2023/01/29 06:11:08;;;;;;;31.55;17.25;;;;;;;-143.48;75.05;118439.88;5097032;28;20032;-40
2023/01/29 06:13:33;;;;;;;32.60;17.25;;;;;;;-143.48;74.92;118439.88;5097265;28;20107;-40
2023/01/29 06:15:59;;;;;;;32.25;17.13;;;;;;;-143.48;74.62;118439.88;5097253;28;20424;-40
2023/01/29 06:18:24;;;;;;;33.30;17.38;;;;;;;-143.48;74.77;118439.88;5096949;28;20501;-40
2023/01/29 06:20:49;;;;;;;33.53;17.70;;;;;;;-143.48;74.56;118439.88;5096529;28;20489;-40
2023/01/29 06:23:15;;;;;;;32.33;18.17;;;;;;;-143.48;74.09;118439.88;5096840;28;20023;-40
2023/01/29 06:25:40;;;;;;;31.48;16.80;;;;;;;-143.48;74.46;118439.88;5096521;28;20020;-40
2023/01/29 06:28:05;;;;;;;32.15;16.13;;;;;;;-143.48;74.38;118439.88;5096419;28;20028;-40
2023/01/29 06:30:31;;;;;;;32.80;18.13;;;;;;;-143.48;74.88;118439.88;5096503;28;20028;-40
2023/01/29 06:32:57;;;;;;;31.10;17.92;;;;;;;-143.48;74.30;118439.88;5096620;28;20058;-40
2023/01/29 06:35:23;;;;;;;35.08;18.05;;;;;;;-143.48;74.94;118439.88;5097132;28;20473;-40
2023/01/29 06:37:49;;;;;;;36.58;18.30;;;;;;;-143.48;75.88;118439.88;5096812;28;20023;-40
2023/01/29 06:40:14;;;;;;;31.48;17.42;;;;;;;-143.48;76.14;118439.88;5096529;28;20374;-40
2023/01/29 06:42:39;;;;;;;36.20;18.77;;;;;;;-143.48;76.12;118439.88;5096575;28;20020;-40
2023/01/29 06:45:05;;;;;;;33.17;18.65;;;;;;;-143.48;76.12;118439.88;5095954;28;20048;-40
2023/01/29 06:47:30;;;;;;;36.88;18.83;;;;;;;-143.48;76.93;118439.88;5096595;28;20115;-40
2023/01/29 06:49:56;;;;;;;35.53;18.88;;;;;;;-143.48;76.28;118439.88;5096083;28;20077;-40
2023/01/29 06:52:21;;;;;;;33.10;17.90;;;;;;;-143.48;76.16;118439.88;5095874;28;20057;-40
2023/01/29 06:54:46;;;;;;;32.17;18.33;;;;;;;-143.48;75.62;118439.88;5096509;28;20035;-40
2023/01/29 06:57:11;;;;;;;36.20;18.67;;;;;;;-143.48;76.35;118439.88;5095911;28;20106;-40
2023/01/29 06:59:37;;;;;;;34.42;19.05;;;;;;;-143.48;75.88;118439.88;5096113;28;20132;-40
2023/01/29 07:02:02;;;;;;;31.88;18.02;;;;;;;-143.48;75.35;118439.88;5095887;28;20095;-40
2023/01/29 07:04:28;;;;;;;34.60;18.02;;;;;;;-143.48;75.72;118439.88;5095939;28;20016;-40
2023/01/29 07:06:53;;;;;;;34.35;18.75;;;;;;;-143.48;75.81;118439.88;5095780;28;20038;-40
2023/01/29 07:09:18;;;;;;;34.00;18.10;;;;;;;-143.48;76.39;118439.88;5095495;28;20024;-40
2023/01/29 07:11:43;;;;;;;32.65;17.55;;;;;;;-143.48;75.79;118439.88;5095627;28;20051;-40
2023/01/29 07:14:09;;;;;;;36.13;18.05;;;;;;;-143.48;75.23;118439.88;5095497;28;20446;-40
2023/01/29 07:16:34;;;;;;;36.78;18.17;;;;;;;-143.48;75.10;118439.88;5095765;28;20028;-40
2023/01/29 07:19:00;;;;;;;33.60;17.83;;;;;;;-143.48;75.91;118439.88;5095623;28;20028;-40
2023/01/29 07:21:25;;;;;;;36.80;18.73;;;;;;;-143.48;74.91;118439.88;5095849;28;20028;-40
2023/01/29 07:23:50;;;;;;;32.05;17.25;;;;;;;-143.48;74.86;118439.88;5095588;28;20446;-40
2023/01/29 07:26:16;;;;;;;31.90;18.10;;;;;;;-143.48;74.70;118439.88;5095590;28;20027;-40
2023/01/29 07:28:41;;;;;;;30.92;18.08;;;;;;;-143.48;75.37;118439.88;5095181;28;20059;-40
2023/01/29 07:31:10;;;;;;;32.83;17.80;;;;;;;-143.48;75.14;118439.88;5095285;28;20131;-40
2023/01/29 07:33:35;;;;;;;32.45;17.17;;;;;;;-143.48;74.40;118439.88;5094926;28;20060;-40
2023/01/29 07:36:01;;;;;;;30.08;17.40;;;;;;;-143.48;74.51;118439.88;5095203;28;20051;-40
2023/01/29 07:38:26;;;;;;;31.98;17.33;;;;;;;-143.48;75.07;118439.88;5076810;28;20019;-40
2023/01/29 07:40:52;;;;;;;31.35;16.77;;;;;;;-143.48;74.70;118439.88;5094940;28;20023;-40
2023/01/29 07:43:17;;;;;;;31.98;18.15;;;;;;;-143.48;75.38;118439.88;5076878;28;20026;-40
2023/01/29 07:45:43;;;;;;;30.98;17.33;;;;;;;-143.48;75.32;118439.88;5094910;28;20083;-40
2023/01/29 07:48:11;;;;;;;29.17;16.70;;;;;;;-143.48;74.65;118439.88;5075828;28;20397;-40
2023/01/29 07:50:37;;;;;;;35.90;17.90;;;;;;;-143.48;74.01;118439.88;5094445;28;20020;-41
2023/01/29 07:53:03;;;;;;;33.83;18.48;;;;;;;-143.48;74.64;118439.88;5076666;28;20070;-40
2023/01/29 07:55:30;;;;;;;30.55;17.30;;;;;;;-143.48;74.71;118439.88;5076645;28;20030;-41
2023/01/29 07:58:05;;;;;;;30.40;17.33;;;;;;;-143.48;74.51;118439.88;5076482;28;20020;-40
2023/01/29 08:00:31;;;;;;;29.10;17.00;;;;;;;-143.48;73.91;118439.88;5094881;28;20024;-40
2023/01/29 08:03:11;;;;;;;30.92;17.33;;;;;;;-143.48;74.80;118439.88;5094555;28;20420;-40
2023/01/29 08:05:36;;;;;;;30.02;16.98;;;;;;;-143.48;74.39;118439.88;5094536;28;20035;-40
2023/01/29 08:08:02;;;;;;;28.30;16.67;;;;;;;-143.48;75.14;118439.88;5094365;28;20016;-40
2023/01/29 08:10:27;;;;;;;35.30;18.10;;;;;;;-143.48;73.96;118439.88;5094215;28;20067;-40
2023/01/29 08:12:58;;;;;;;29.85;16.67;;;;;;;-143.48;73.72;118439.88;5076266;28;20016;-40
2023/01/29 08:15:23;;;;;;;31.00;17.17;;;;;;;-143.48;74.50;118439.88;5094456;28;20055;-40
2023/01/29 08:17:49;;;;;;;35.28;18.08;;;;;;;-143.48;74.06;118439.88;5093320;28;20441;-40
2023/01/29 08:20:15;;;;;;;32.13;17.58;;;;;;;-143.48;74.14;118439.88;5093880;28;20024;-40
2023/01/29 08:22:40;;;;;;;32.20;17.10;;;;;;;-143.48;74.44;118439.88;5094218;28;20413;-40
2023/01/29 08:25:06;;;;;;;30.58;16.50;;;;;;;-143.48;73.81;118439.88;5094070;28;20081;-40
2023/01/29 08:27:31;;;;;;;30.33;16.85;;;;;;;-143.48;73.86;118439.88;5075847;28;20107;-41
2023/01/29 08:29:56;;;;;;;29.27;16.77;;;;;;;-143.48;74.34;118439.88;5094286;28;20023;-40
2023/01/29 08:32:21;;;;;;;29.58;16.42;;;;;;;-143.48;73.53;118439.88;5093685;28;20124;-40
2023/01/29 08:34:47;;;;;;;29.38;16.95;;;;;;;-143.48;73.77;118439.88;5093858;28;20031;-40
2023/01/29 08:37:12;;;;;;;28.88;15.85;;;;;;;-143.48;73.47;118439.88;5094014;28;20024;-40
2023/01/29 08:39:38;;;;;;;27.65;15.10;;;;;;;-143.48;73.71;118439.88;5094094;28;20050;-40
2023/01/29 08:42:03;;;;;;;29.55;16.23;;;;;;;-143.48;73.72;118439.88;5094188;28;20379;-40
2023/01/29 08:44:28;;;;;;;30.10;16.33;;;;;;;-143.48;74.04;118439.88;5093869;28;20161;-40
2023/01/29 08:46:53;;;;;;;31.48;16.02;;;;;;;-143.48;73.51;118439.88;5093701;28;20071;-39
2023/01/29 08:49:19;;;;;;;27.60;15.73;;;;;;;-143.48;73.32;118439.88;5094035;28;20020;-40
2023/01/29 08:51:44;;;;;;;27.55;16.23;;;;;;;-143.48;72.80;118439.88;5094136;28;20390;-40
2023/01/29 08:54:09;;;;;;;31.45;16.92;;;;;;;-143.48;73.61;118439.88;5075365;28;20110;-40
2023/01/29 08:56:35;;;;;;;32.22;16.35;;;;;;;-143.48;72.96;118439.88;5094324;28;20020;-40
2023/01/29 08:59:00;;;;;;;28.25;16.25;;;;;;;-143.48;73.54;118439.88;5094263;28;20024;-40
2023/01/29 09:01:25;;;;;;;25.45;14.93;;;;;;;-143.48;73.30;118439.88;5093666;28;20028;-40
2023/01/29 09:03:51;;;;;;;26.73;15.48;;;;;;;-143.48;73.16;118439.88;5093749;28;20012;-40
2023/01/29 09:06:17;;;;;;;27.63;16.35;;;;;;;-143.48;73.05;118439.88;5093714;28;20020;-40
2023/01/29 09:08:42;;;;;;;28.80;16.38;;;;;;;-143.48;73.11;118439.88;5093268;28;20497;-40
2023/01/29 09:11:08;;;;;;;28.65;16.45;;;;;;;-143.48;73.77;118439.88;5092521;28;20024;-40
2023/01/29 09:13:33;;;;;;;30.35;17.55;;;;;;;-143.48;73.82;118439.88;5093261;28;20065;-40
2023/01/29 09:16:00;;;;;;;33.08;16.98;;;;;;;-143.48;72.92;118439.88;5093347;28;20036;-40
2023/01/29 09:18:25;;;;;;;29.33;16.23;;;;;;;-143.48;73.99;118439.88;5075260;28;20031;-40
2023/01/29 09:20:52;;;;;;;27.25;16.35;;;;;;;-143.48;73.60;118439.88;5093432;28;20036;-40
2023/01/29 09:23:17;;;;;;;28.60;16.70;;;;;;;-143.48;72.44;118439.88;5093696;28;20016;-40
2023/01/29 09:25:43;;;;;;;28.77;15.98;;;;;;;-143.48;73.20;118439.88;5092904;28;20024;-40
2023/01/29 09:28:08;;;;;;;26.45;16.05;;;;;;;-143.48;72.71;118439.88;5092895;28;20089;-40
2023/01/29 09:30:36;;;;;;;30.27;16.33;;;;;;;-143.48;73.59;118439.88;5093112;28;20032;-40
2023/01/29 09:33:02;;;;;;;30.20;15.77;;;;;;;-143.48;73.11;118439.88;5095957;28;20101;-39
2023/01/29 09:35:27;;;;;;;30.75;16.00;;;;;;;-143.48;73.56;118439.88;5097432;28;20082;-40
2023/01/29 09:37:53;;;;;;;34.58;16.40;;;;;;;-143.48;73.12;118439.88;5097146;28;20047;-41
2023/01/29 09:40:47;;;;;;;29.70;16.75;;;;;;;-143.48;72.15;118439.88;5097239;28;20351;-40
2023/01/29 09:43:17;;;;;;;30.73;16.77;;;;;;;-143.48;72.49;118439.88;5097780;28;20077;-40
2023/01/29 09:45:54;;;;;;;29.00;16.58;;;;;;;-143.48;73.03;118439.88;5097117;28;20052;-40
2023/01/29 09:48:24;;;;;;;26.38;16.67;;;;;;;-143.48;73.14;118439.88;5097261;28;20517;-40
2023/01/29 09:50:54;;;;;;;31.52;16.35;;;;;;;-143.48;73.06;118439.88;5097209;28;20034;-40
2023/01/29 09:53:27;;;;;;;27.30;16.02;;;;;;;-143.48;72.49;118439.88;5078823;28;20397;-40
2023/01/29 09:56:11;;;;;;;30.77;15.52;;;;;;;-143.48;72.64;118439.88;5097056;28;20020;-40
2023/01/29 09:58:39;;;;;;;27.10;16.65;;;;;;;-143.48;72.81;118439.88;5097351;28;20031;-40
2023/01/29 10:01:32;;;;;;;30.73;17.02;;;;;;;-143.48;72.40;118439.88;5096872;28;20043;-39
2023/01/29 10:04:30;;;;;;;27.05;15.85;;;;;;;-143.48;72.66;118439.88;5096998;28;20039;-39
2023/01/29 10:07:17;;;;;;;31.58;16.83;;;;;;;-143.48;72.13;118439.88;5096935;28;20505;-39
2023/01/29 10:09:48;;;;;;;28.83;16.02;;;;;;;-143.48;72.13;118439.88;5097054;28;20043;-39
2023/01/29 10:12:16;;;;;;;34.15;16.88;;;;;;;-143.48;72.56;118439.88;5096635;28;20424;-39
2023/01/29 10:15:00;;;;;;;29.95;16.20;;;;;;;-143.48;72.34;118439.88;5096657;28;20498;-39
2023/01/29 10:17:47;;;;;;;29.35;17.55;;;;;;;-143.48;72.70;118439.88;5097044;28;20028;-39
2023/01/29 10:20:31;;;;;;;31.00;17.08;;;;;;;-143.48;72.44;118439.88;5096452;28;20027;-39
2023/01/29 10:23:14;;;;;;;30.70;16.38;;;;;;;-143.48;72.32;118439.88;5096213;28;20024;-40
2023/01/29 10:25:41;;;;;;;28.98;17.40;;;;;;;-143.48;72.61;118439.88;5096507;28;20024;-39
2023/01/29 10:28:32;;;;;;;33.10;17.08;;;;;;;-143.48;72.18;118439.88;5078010;28;20584;-39
2023/01/29 10:31:05;;;;;;;30.60;16.25;;;;;;;-143.48;72.17;118439.88;5095888;28;20035;-40
2023/01/29 10:33:40;;;;;;;27.52;16.13;;;;;;;-143.48;72.66;118439.88;5095833;28;20028;-40
2023/01/29 10:36:12;;;;;;;30.13;17.42;;;;;;;-143.48;73.01;118439.88;5096026;28;20024;-39
2023/01/29 10:38:45;;;;;;;30.88;16.73;;;;;;;-143.48;72.83;118439.88;5096205;28;20024;-40
2023/01/29 10:41:27;;;;;;;30.88;17.23;;;;;;;-143.48;72.50;118439.88;5078018;28;20363;-38
2023/01/29 10:44:29;;;;;;;27.20;16.15;;;;;;;-143.48;72.88;118439.88;5077426;28;20427;-39
2023/01/29 10:47:04;;;;;;;29.90;17.52;;;;;;;-143.48;72.78;118439.88;5095821;28;20067;-38
2023/01/29 10:49:39;;;;;;;34.05;18.08;;;;;;;-143.48;72.40;118439.88;5095939;28;20107;-41
2023/01/29 10:52:04;;;;;;;34.63;17.45;;;;;;;-143.48;72.65;118439.88;5096078;28;20024;-41
2023/01/29 10:55:03;;;;;;;32.25;17.85;;;;;;;-143.48;72.84;118439.88;5095516;28;20031;-41
2023/01/29 10:57:48;;;;;;;33.60;17.90;;;;;;;-143.48;72.93;118439.88;5094433;28;20036;-41
2023/01/29 11:00:36;;;;;;;32.17;18.05;;;;;;;-143.48;72.71;118439.88;5094528;28;20505;-41
2023/01/29 11:03:16;;;;;;;30.08;17.58;;;;;;;-143.48;73.02;118439.88;5095594;28;20099;-41
2023/01/29 11:05:50;;;;;;;31.25;16.52;;;;;;;-143.48;73.08;118439.88;5095626;28;20023;-40
2023/01/29 11:08:19;;;;;;;36.30;19.05;;;;;;;-143.48;73.37;118439.88;5095897;28;20385;-39
2023/01/29 11:11:16;;;;;;;34.30;18.30;;;;;;;-143.48;73.24;118439.88;5095992;28;20077;-40
2023/01/29 11:13:58;;;;;;;33.25;19.35;;;;;;;-143.48;73.30;118439.88;5095888;28;20109;-39
2023/01/29 11:16:27;;;;;;;35.53;18.30;;;;;;;-143.48;72.63;118439.88;5095730;28;20024;-39
2023/01/29 11:19:00;;;;;;;33.42;19.10;;;;;;;-143.48;73.58;118439.88;5095585;28;20024;-40
2023/01/29 11:21:27;;;;;;;35.15;18.80;;;;;;;-143.48;72.52;118439.88;5095704;28;20480;-39
2023/01/29 11:24:16;;;;;;;34.10;18.67;;;;;;;-143.48;73.59;118439.88;5095199;28;20149;-40
2023/01/29 11:26:44;;;;;;;40.72;19.38;;;;;;;-143.48;73.37;118439.88;5094589;28;20031;-39
2023/01/29 11:29:41;;;;;;;34.70;19.05;;;;;;;-143.48;73.57;118439.88;5094870;28;20031;-39
2023/01/29 11:32:23;;;;;;;33.80;19.17;;;;;;;-143.48;73.64;118439.88;5078365;28;20047;-40
2023/01/29 11:34:55;;;;;;;33.92;19.75;;;;;;;-143.48;74.57;118439.88;5094484;28;20107;-39
2023/01/29 11:37:20;;;;;;;36.43;19.10;;;;;;;-143.48;74.35;118439.88;5094397;28;20474;-39
2023/01/29 11:39:49;;;;;;;36.65;19.58;;;;;;;-143.48;74.56;118439.88;5094828;28;20024;-39